sensor_id;sensor_type;location;lat;lon;timestamp;pressure;altitude;pressure_sealevel;temperature;humidity
21100;BME280;10708;50.824;4.408;2023-04-03T00:02:10;101898.94;;;3.58;100.00
21100;BME280;10708;50.824;4.408;2023-04-03T00:07:12;101898.03;;;3.56;100.00
21100;BME280;10708;50.824;4.408;2023-04-03T00:12:17;101898.81;;;3.49;100.00
21100;BME280;10708;50.824;4.408;2023-04-03T00:17:19;101891.72;;;3.39;100.00
21100;BME280;10708;50.824;4.408;2023-04-03T00:22:21;101889.88;;;3.33;100.00
21100;BME280;10708;50.824;4.408;2023-04-03T00:27:25;101897.59;;;3.26;100.00
21100;BME280;10708;50.824;4.408;2023-04-03T00:32:28;101901.84;;;3.19;100.00
21100;BME280;10708;50.824;4.408;2023-04-03T00:37:31;101903.44;;;3.13;100.00
21100;BME280;10708;50.824;4.408;2023-04-03T00:42:35;101904.28;;;3.09;100.00
21100;BME280;10708;50.824;4.408;2023-04-03T00:47:38;101910.22;;;3.03;100.00
21100;BME280;10708;50.824;4.408;2023-04-03T00:52:43;101916.25;;;3.01;100.00
21100;BME280;10708;50.824;4.408;2023-04-03T00:57:53;101904.84;;;2.92;100.00
21100;BME280;10708;50.824;4.408;2023-04-03T01:02:57;101912.63;;;2.89;100.00
21100;BME280;10708;50.824;4.408;2023-04-03T01:07:59;101903.81;;;2.83;100.00
21100;BME280;10708;50.824;4.408;2023-04-03T01:13:18;101907.25;;;2.79;100.00
21100;BME280;10708;50.824;4.408;2023-04-03T01:18:21;101910.66;;;2.76;100.00
21100;BME280;10708;50.824;4.408;2023-04-03T01:23:34;101915.81;;;2.75;100.00
21100;BME280;10708;50.824;4.408;2023-04-03T01:28:40;101920.06;;;2.70;100.00
21100;BME280;10708;50.824;4.408;2023-04-03T01:33:44;101926.06;;;2.66;100.00
21100;BME280;10708;50.824;4.408;2023-04-03T01:38:46;101927.72;;;2.62;100.00
21100;BME280;10708;50.824;4.408;2023-04-03T01:43:49;101932.91;;;2.59;100.00
21100;BME280;10708;50.824;4.408;2023-04-03T01:48:53;101926.78;;;2.57;100.00
21100;BME280;10708;50.824;4.408;2023-04-03T01:53:56;101924.97;;;2.53;100.00
21100;BME280;10708;50.824;4.408;2023-04-03T01:58:58;101917.06;;;2.47;100.00
21100;BME280;10708;50.824;4.408;2023-04-03T02:04:02;101916.16;;;2.45;100.00
21100;BME280;10708;50.824;4.408;2023-04-03T02:09:04;101912.56;;;2.38;100.00
21100;BME280;10708;50.824;4.408;2023-04-03T02:14:07;101916.81;;;2.35;100.00
21100;BME280;10708;50.824;4.408;2023-04-03T02:19:11;101916.75;;;2.32;100.00
21100;BME280;10708;50.824;4.408;2023-04-03T02:24:13;101935.75;;;2.28;100.00
21100;BME280;10708;50.824;4.408;2023-04-03T02:29:16;101939.19;;;2.27;100.00
21100;BME280;10708;50.824;4.408;2023-04-03T02:34:21;101942.56;;;2.22;100.00
21100;BME280;10708;50.824;4.408;2023-04-03T02:39:25;101946.81;;;2.17;100.00
21100;BME280;10708;50.824;4.408;2023-04-03T02:44:27;101951.06;;;2.14;100.00
21100;BME280;10708;50.824;4.408;2023-04-03T02:49:31;101951.81;;;2.08;100.00
21100;BME280;10708;50.824;4.408;2023-04-03T02:54:34;101954.31;;;2.04;100.00
21100;BME280;10708;50.824;4.408;2023-04-03T02:59:36;101943.81;;;1.98;100.00
21100;BME280;10708;50.824;4.408;2023-04-03T03:04:42;101953.28;;;1.96;100.00
21100;BME280;10708;50.824;4.408;2023-04-03T03:09:44;101944.50;;;1.91;100.00
21100;BME280;10708;50.824;4.408;2023-04-03T03:14:47;101955.56;;;1.82;100.00
21100;BME280;10708;50.824;4.408;2023-04-03T03:19:51;101957.28;;;1.81;100.00
21100;BME280;10708;50.824;4.408;2023-04-03T03:24:53;101955.44;;;1.76;100.00
21100;BME280;10708;50.824;4.408;2023-04-03T03:29:55;101965.72;;;1.71;100.00
21100;BME280;10708;50.824;4.408;2023-04-03T03:34:59;101970.88;;;1.68;100.00
21100;BME280;10708;50.824;4.408;2023-04-03T03:40:01;101973.31;;;1.62;100.00
21100;BME280;10708;50.824;4.408;2023-04-03T03:45:05;101977.59;;;1.60;100.00
21100;BME280;10708;50.824;4.408;2023-04-03T03:50:10;101980.09;;;1.56;100.00
21100;BME280;10708;50.824;4.408;2023-04-03T03:55:12;101978.25;;;1.52;100.00
21100;BME280;10708;50.824;4.408;2023-04-03T04:00:15;101979.97;;;1.51;100.00
21100;BME280;10708;50.824;4.408;2023-04-03T04:05:19;101977.31;;;1.48;100.00
21100;BME280;10708;50.824;4.408;2023-04-03T04:10:21;101975.53;;;1.45;100.00
21100;BME280;10708;50.824;4.408;2023-04-03T04:15:24;101983.22;;;1.42;100.00
21100;BME280;10708;50.824;4.408;2023-04-03T04:20:28;101983.19;;;1.39;100.00
21100;BME280;10708;50.824;4.408;2023-04-03T04:25:30;101992.69;;;1.39;100.00
21100;BME280;10708;50.824;4.408;2023-04-03T04:30:33;101990.91;;;1.38;100.00
21100;BME280;10708;50.824;4.408;2023-04-03T04:35:37;101987.44;;;1.37;100.00
21100;BME280;10708;50.824;4.408;2023-04-03T04:40:39;101989.19;;;1.38;100.00
21100;BME280;10708;50.824;4.408;2023-04-03T04:45:42;101985.72;;;1.38;100.00
21100;BME280;10708;50.824;4.408;2023-04-03T04:50:46;101997.00;;;1.38;100.00
21100;BME280;10708;50.824;4.408;2023-04-03T04:55:48;101996.91;;;1.35;100.00
21100;BME280;10708;50.824;4.408;2023-04-03T05:00:58;101998.63;;;1.35;100.00
21100;BME280;10708;50.824;4.408;2023-04-03T05:06:02;101997.75;;;1.34;100.00
21100;BME280;10708;50.824;4.408;2023-04-03T05:11:05;102001.09;;;1.30;100.00
21100;BME280;10708;50.824;4.408;2023-04-03T05:16:07;102000.25;;;1.30;100.00
21100;BME280;10708;50.824;4.408;2023-04-03T05:21:11;101998.50;;;1.29;100.00
21100;BME280;10708;50.824;4.408;2023-04-03T05:26:14;101998.44;;;1.27;100.00
21100;BME280;10708;50.824;4.408;2023-04-03T05:31:17;101993.22;;;1.26;100.00
21100;BME280;10708;50.824;4.408;2023-04-03T05:36:21;101996.63;;;1.25;100.00
21100;BME280;10708;50.824;4.408;2023-04-03T05:41:23;102015.66;;;1.24;100.00
21100;BME280;10708;50.824;4.408;2023-04-03T05:46:26;102020.03;;;1.26;100.00
21100;BME280;10708;50.824;4.408;2023-04-03T05:51:33;102012.34;;;1.29;100.00
21100;BME280;10708;50.824;4.408;2023-04-03T05:56:36;102015.88;;;1.33;100.00
21100;BME280;10708;50.824;4.408;2023-04-03T06:01:39;102014.31;;;1.39;100.00
21100;BME280;10708;50.824;4.408;2023-04-03T06:06:48;102016.13;;;1.43;100.00
21100;BME280;10708;50.824;4.408;2023-04-03T06:11:52;102012.00;;;1.52;100.00
21100;BME280;10708;50.824;4.408;2023-04-03T06:16:54;102013.94;;;1.59;100.00
21100;BME280;10708;50.824;4.408;2023-04-03T06:21:58;102018.50;;;1.69;100.00
21100;BME280;10708;50.824;4.408;2023-04-03T06:27:01;102017.78;;;1.76;100.00
21100;BME280;10708;50.824;4.408;2023-04-03T06:32:04;102022.34;;;1.86;100.00
21100;BME280;10708;50.824;4.408;2023-04-03T06:37:10;102025.19;;;1.97;100.00
21100;BME280;10708;50.824;4.408;2023-04-03T06:42:13;102028.84;;;2.05;100.00
21100;BME280;10708;50.824;4.408;2023-04-03T06:47:16;102026.56;;;2.20;100.00
21100;BME280;10708;50.824;4.408;2023-04-03T06:52:20;102027.78;;;2.36;100.00
21100;BME280;10708;50.824;4.408;2023-04-03T06:57:23;102031.53;;;2.50;100.00
21100;BME280;10708;50.824;4.408;2023-04-03T07:02:26;102035.22;;;2.61;100.00
21100;BME280;10708;50.824;4.408;2023-04-03T07:07:30;102038.00;;;2.70;100.00
21100;BME280;10708;50.824;4.408;2023-04-03T07:12:34;102041.66;;;2.78;100.00
21100;BME280;10708;50.824;4.408;2023-04-03T07:17:37;102037.38;;;2.82;100.00
21100;BME280;10708;50.824;4.408;2023-04-03T07:22:41;102027.16;;;2.92;100.00
21100;BME280;10708;50.824;4.408;2023-04-03T07:27:43;102048.03;;;2.94;100.00
21100;BME280;10708;50.824;4.408;2023-04-03T07:32:46;102051.78;;;3.08;100.00
21100;BME280;10708;50.824;4.408;2023-04-03T07:37:50;102051.97;;;3.20;100.00
21100;BME280;10708;50.824;4.408;2023-04-03T07:42:52;102062.13;;;3.55;100.00
21100;BME280;10708;50.824;4.408;2023-04-03T07:47:55;102056.72;;;4.60;100.00
21100;BME280;10708;50.824;4.408;2023-04-03T07:52:59;102063.97;;;5.73;100.00
21100;BME280;10708;50.824;4.408;2023-04-03T07:58:02;102047.09;;;6.62;100.00
21100;BME280;10708;50.824;4.408;2023-04-03T08:03:06;102042.84;;;7.02;100.00
21100;BME280;10708;50.824;4.408;2023-04-03T08:08:11;102052.47;;;7.14;100.00
21100;BME280;10708;50.824;4.408;2023-04-03T08:13:14;102049.03;;;7.63;100.00
21100;BME280;10708;50.824;4.408;2023-04-03T08:18:17;102053.31;;;8.33;100.00
21100;BME280;10708;50.824;4.408;2023-04-03T08:23:23;102048.09;;;8.16;100.00
21100;BME280;10708;50.824;4.408;2023-04-03T08:28:26;102052.38;;;8.49;100.00
21100;BME280;10708;50.824;4.408;2023-04-03T08:33:28;102046.06;;;8.96;100.00
21100;BME280;10708;50.824;4.408;2023-04-03T08:38:32;102051.50;;;8.56;100.00
21100;BME280;10708;50.824;4.408;2023-04-03T08:43:48;102044.47;;;8.66;100.00
21100;BME280;10708;50.824;4.408;2023-04-03T08:48:55;102050.53;;;8.74;100.00
21100;BME280;10708;50.824;4.408;2023-04-03T08:54:04;102043.50;;;8.79;100.00
21100;BME280;10708;50.824;4.408;2023-04-03T08:59:14;102032.81;;;9.11;100.00
21100;BME280;10708;50.824;4.408;2023-04-03T09:04:19;102041.56;;;9.16;100.00
21100;BME280;10708;50.824;4.408;2023-04-03T09:09:31;102028.59;;;8.82;100.00
21100;BME280;10708;50.824;4.408;2023-04-03T09:14:38;102044.59;;;8.15;100.00
21100;BME280;10708;50.824;4.408;2023-04-03T09:19:48;102053.28;;;8.39;100.00
21100;BME280;10708;50.824;4.408;2023-04-03T09:24:58;102040.16;;;8.46;100.00
21100;BME280;10708;50.824;4.408;2023-04-03T09:30:02;102041.94;;;8.37;100.00
21100;BME280;10708;50.824;4.408;2023-04-03T09:35:17;102041.03;;;8.30;100.00
21100;BME280;10708;50.824;4.408;2023-04-03T09:40:36;102039.28;;;8.43;100.00
21100;BME280;10708;50.824;4.408;2023-04-03T09:45:39;102017.38;;;8.53;100.00
21100;BME280;10708;50.824;4.408;2023-04-03T09:50:56;102013.03;;;8.40;100.00
21100;BME280;10708;50.824;4.408;2023-04-03T09:56:03;102010.28;;;8.69;100.00
21100;BME280;10708;50.824;4.408;2023-04-03T10:01:10;101990.81;;;9.08;100.00
21100;BME280;10708;50.824;4.408;2023-04-03T10:06:23;102001.31;;;9.05;100.00
21100;BME280;10708;50.824;4.408;2023-04-03T10:11:27;101989.72;;;9.30;100.00
21100;BME280;10708;50.824;4.408;2023-04-03T10:16:35;101992.41;;;9.27;100.00
21100;BME280;10708;50.824;4.408;2023-04-03T10:21:45;101992.28;;;9.41;100.00
21100;BME280;10708;50.824;4.408;2023-04-03T10:26:56;101986.63;;;8.78;100.00
21100;BME280;10708;50.824;4.408;2023-04-03T10:32:06;101988.31;;;8.85;100.00
21100;BME280;10708;50.824;4.408;2023-04-03T10:37:15;101991.72;;;8.99;100.00
21100;BME280;10708;50.824;4.408;2023-04-03T10:42:29;101972.69;;;8.61;100.00
21100;BME280;10708;50.824;4.408;2023-04-03T10:47:42;101964.94;;;8.38;100.00
21100;BME280;10708;50.824;4.408;2023-04-03T10:52:56;101950.97;;;8.19;100.00
21100;BME280;10708;50.824;4.408;2023-04-03T10:58:02;101951.03;;;8.01;100.00
21100;BME280;10708;50.824;4.408;2023-04-03T11:03:10;101950.19;;;7.93;100.00
21100;BME280;10708;50.824;4.408;2023-04-03T11:08:24;101946.66;;;8.00;100.00
21100;BME280;10708;50.824;4.408;2023-04-03T11:13:33;101944.06;;;7.92;100.00
21100;BME280;10708;50.824;4.408;2023-04-03T11:18:39;101951.06;;;7.89;100.00
21100;BME280;10708;50.824;4.408;2023-04-03T11:23:44;101937.06;;;7.94;100.00
21100;BME280;10708;50.824;4.408;2023-04-03T11:28:53;101940.56;;;7.95;100.00
21100;BME280;10708;50.824;4.408;2023-04-03T11:34:07;101932.63;;;8.18;100.00
21100;BME280;10708;50.824;4.408;2023-04-03T11:39:20;101921.16;;;8.29;100.00
21100;BME280;10708;50.824;4.408;2023-04-03T11:44:34;101917.69;;;8.33;100.00
21100;BME280;10708;50.824;4.408;2023-04-03T11:49:57;101909.78;;;8.42;100.00
21100;BME280;10708;50.824;4.408;2023-04-03T11:55:00;101906.31;;;8.36;100.00
21100;BME280;10708;50.824;4.408;2023-04-03T12:05:40;101892.31;;;8.38;100.00
21100;BME280;10708;50.824;4.408;2023-04-03T12:11:13;101900.13;;;8.46;100.00
21100;BME280;10708;50.824;4.408;2023-04-03T12:16:20;101880.81;;;8.51;100.00
21100;BME280;10708;50.824;4.408;2023-04-03T12:27:28;101872.88;;;8.61;100.00
21100;BME280;10708;50.824;4.408;2023-04-03T12:32:49;101871.94;;;8.74;100.00
21100;BME280;10708;50.824;4.408;2023-04-03T12:38:20;101881.69;;;8.55;100.00
21100;BME280;10708;50.824;4.408;2023-04-03T12:43:48;101880.75;;;8.64;100.00
21100;BME280;10708;50.824;4.408;2023-04-03T12:48:54;101868.44;;;8.73;100.00
21100;BME280;10708;50.824;4.408;2023-04-03T12:54:03;101862.31;;;8.73;100.00
21100;BME280;10708;50.824;4.408;2023-04-03T12:59:15;101856.16;;;8.74;100.00
21100;BME280;10708;50.824;4.408;2023-04-03T13:04:18;101864.94;;;8.70;100.00
21100;BME280;10708;50.824;4.408;2023-04-03T13:09:24;101843.97;;;8.68;100.00
21100;BME280;10708;50.824;4.408;2023-04-03T13:14:29;101858.84;;;8.68;100.00
21100;BME280;10708;50.824;4.408;2023-04-03T13:19:33;101846.53;;;8.77;100.00
21100;BME280;10708;50.824;4.408;2023-04-03T13:24:38;101855.22;;;8.81;100.00
21100;BME280;10708;50.824;4.408;2023-04-03T13:29:41;101847.28;;;8.88;100.00
21100;BME280;10708;50.824;4.408;2023-04-03T13:34:44;101835.94;;;8.85;98.07
21100;BME280;10708;50.824;4.408;2023-04-03T13:39:58;101839.38;;;8.93;96.23
21100;BME280;10708;50.824;4.408;2023-04-03T13:45:19;101834.13;;;8.90;99.32
21100;BME280;10708;50.824;4.408;2023-04-03T13:50:24;101832.28;;;9.01;97.19
21100;BME280;10708;50.824;4.408;2023-04-03T13:55:30;101816.44;;;9.09;99.47
21100;BME280;10708;50.824;4.408;2023-04-03T14:00:36;101817.28;;;9.11;97.43
21100;BME280;10708;50.824;4.408;2023-04-03T14:05:39;101801.41;;;9.21;100.00
21100;BME280;10708;50.824;4.408;2023-04-03T14:10:43;101802.25;;;9.28;100.00
21100;BME280;10708;50.824;4.408;2023-04-03T14:15:47;101788.91;;;9.42;100.00
21100;BME280;10708;50.824;4.408;2023-04-03T14:20:50;101781.22;;;9.25;100.00
21100;BME280;10708;50.824;4.408;2023-04-03T14:25:54;101787.34;;;9.27;97.57
21100;BME280;10708;50.824;4.408;2023-04-03T14:30:56;101795.00;;;9.47;100.00
21100;BME280;10708;50.824;4.408;2023-04-03T14:35:59;101794.91;;;9.54;100.00
21100;BME280;10708;50.824;4.408;2023-04-03T14:41:04;101782.84;;;9.38;100.00
21100;BME280;10708;50.824;4.408;2023-04-03T14:46:18;101782.75;;;9.46;99.05
21100;BME280;10708;50.824;4.408;2023-04-03T14:51:23;101782.53;;;9.64;100.00
21100;BME280;10708;50.824;4.408;2023-04-03T14:56:31;101782.41;;;9.72;99.09
21100;BME280;10708;50.824;4.408;2023-04-03T15:01:34;101784.00;;;9.85;100.00
21100;BME280;10708;50.824;4.408;2023-04-03T15:06:38;101776.88;;;9.91;100.00
21100;BME280;10708;50.824;4.408;2023-04-03T15:11:42;101763.63;;;9.99;100.00
21100;BME280;10708;50.824;4.408;2023-04-03T15:16:45;101767.97;;;10.02;100.00
21100;BME280;10708;50.824;4.408;2023-04-03T15:21:48;101763.69;;;9.94;96.79
21100;BME280;10708;50.824;4.408;2023-04-03T15:26:53;101770.00;;;9.81;97.26
21100;BME280;10708;50.824;4.408;2023-04-03T15:31:56;101767.47;;;9.77;96.42
21100;BME280;10708;50.824;4.408;2023-04-03T15:36:58;101768.22;;;9.85;98.22
21100;BME280;10708;50.824;4.408;2023-04-03T15:42:02;101760.22;;;9.91;100.00
21100;BME280;10708;50.824;4.408;2023-04-03T15:47:07;101758.81;;;9.67;94.76
21100;BME280;10708;50.824;4.408;2023-04-03T15:52:09;101760.44;;;9.77;98.12
21100;BME280;10708;50.824;4.408;2023-04-03T15:57:14;101753.44;;;9.76;98.54
21100;BME280;10708;50.824;4.408;2023-04-03T16:02:16;101744.59;;;9.79;96.28
21100;BME280;10708;50.824;4.408;2023-04-03T16:07:19;101753.34;;;9.81;98.35
21100;BME280;10708;50.824;4.408;2023-04-03T16:12:23;101764.09;;;9.64;97.35
21100;BME280;10708;50.824;4.408;2023-04-03T16:17:26;101762.25;;;9.72;98.04
21100;BME280;10708;50.824;4.408;2023-04-03T16:22:29;101753.28;;;9.87;100.00
21100;BME280;10708;50.824;4.408;2023-04-03T16:27:35;101763.09;;;9.76;100.00
21100;BME280;10708;50.824;4.408;2023-04-03T16:32:38;101753.47;;;9.72;100.00
21100;BME280;10708;50.824;4.408;2023-04-03T16:37:41;101760.59;;;9.63;100.00
21100;BME280;10708;50.824;4.408;2023-04-03T16:42:45;101763.38;;;9.51;100.00
21100;BME280;10708;50.824;4.408;2023-04-03T16:47:48;101770.41;;;9.51;100.00
21100;BME280;10708;50.824;4.408;2023-04-03T16:52:53;101759.75;;;9.61;100.00
21100;BME280;10708;50.824;4.408;2023-04-03T16:57:57;101772.13;;;9.53;100.00
21100;BME280;10708;50.824;4.408;2023-04-03T17:02:59;101766.88;;;9.52;100.00
21100;BME280;10708;50.824;4.408;2023-04-03T17:08:02;101761.03;;;9.29;100.00
21100;BME280;10708;50.824;4.408;2023-04-03T17:13:06;101778.47;;;9.37;100.00
21100;BME280;10708;50.824;4.408;2023-04-03T17:18:09;101771.59;;;9.27;100.00
21100;BME280;10708;50.824;4.408;2023-04-03T17:23:11;101775.13;;;9.23;100.00
21100;BME280;10708;50.824;4.408;2023-04-03T17:28:15;101785.63;;;9.24;100.00
21100;BME280;10708;50.824;4.408;2023-04-03T17:33:17;101781.28;;;9.19;100.00
21100;BME280;10708;50.824;4.408;2023-04-03T17:38:20;101780.56;;;9.05;100.00
21100;BME280;10708;50.824;4.408;2023-04-03T17:43:24;101779.81;;;8.94;100.00
21100;BME280;10708;50.824;4.408;2023-04-03T17:48:26;101787.78;;;8.86;100.00
21100;BME280;10708;50.824;4.408;2023-04-03T17:53:29;101791.38;;;8.74;100.00
21100;BME280;10708;50.824;4.408;2023-04-03T17:58:33;101786.28;;;8.55;100.00
21100;BME280;10708;50.824;4.408;2023-04-03T18:03:35;101800.31;;;8.52;100.00
21100;BME280;10708;50.824;4.408;2023-04-03T18:08:40;101796.94;;;8.35;100.00
21100;BME280;10708;50.824;4.408;2023-04-03T18:13:45;101800.50;;;8.20;100.00
21100;BME280;10708;50.824;4.408;2023-04-03T18:18:48;101811.97;;;8.08;100.00
21100;BME280;10708;50.824;4.408;2023-04-03T18:23:52;101809.41;;;7.95;100.00
21100;BME280;10708;50.824;4.408;2023-04-03T18:28:59;101812.06;;;7.83;100.00
21100;BME280;10708;50.824;4.408;2023-04-03T18:34:03;101808.63;;;7.71;100.00
21100;BME280;10708;50.824;4.408;2023-04-03T18:39:06;101804.28;;;7.64;100.00
21100;BME280;10708;50.824;4.408;2023-04-03T18:44:12;101801.72;;;7.52;100.00
21100;BME280;10708;50.824;4.408;2023-04-03T18:49:16;101804.38;;;7.41;100.00
21100;BME280;10708;50.824;4.408;2023-04-03T18:54:19;101810.50;;;7.34;100.00
21100;BME280;10708;50.824;4.408;2023-04-03T18:59:23;101803.56;;;7.27;100.00
21100;BME280;10708;50.824;4.408;2023-04-03T19:04:26;101807.91;;;7.19;100.00
21100;BME280;10708;50.824;4.408;2023-04-03T19:09:29;101803.56;;;7.11;100.00
21100;BME280;10708;50.824;4.408;2023-04-03T19:14:33;101812.31;;;7.02;100.00
21100;BME280;10708;50.824;4.408;2023-04-03T19:19:35;101818.44;;;6.92;100.00
21100;BME280;10708;50.824;4.408;2023-04-03T19:24:37;101828.94;;;6.86;100.00
21100;BME280;10708;50.824;4.408;2023-04-03T19:29:41;101830.66;;;6.81;100.00
21100;BME280;10708;50.824;4.408;2023-04-03T19:34:43;101835.94;;;6.69;100.00
21100;BME280;10708;50.824;4.408;2023-04-03T19:39:46;101839.41;;;6.63;100.00
21100;BME280;10708;50.824;4.408;2023-04-03T19:44:50;101842.00;;;6.54;100.00
21100;BME280;10708;50.824;4.408;2023-04-03T19:49:53;101854.22;;;6.49;100.00
21100;BME280;10708;50.824;4.408;2023-04-03T19:54:55;101852.47;;;6.39;100.00
21100;BME280;10708;50.824;4.408;2023-04-03T19:59:59;101852.44;;;6.33;100.00
21100;BME280;10708;50.824;4.408;2023-04-03T20:05:04;101856.75;;;6.20;100.00
21100;BME280;10708;50.824;4.408;2023-04-03T20:10:09;101852.38;;;6.11;100.00
21100;BME280;10708;50.824;4.408;2023-04-03T20:15:13;101859.34;;;6.05;100.00
21100;BME280;10708;50.824;4.408;2023-04-03T20:20:16;101854.97;;;5.98;100.00
21100;BME280;10708;50.824;4.408;2023-04-03T20:25:19;101860.13;;;5.87;100.00
21100;BME280;10708;50.824;4.408;2023-04-03T20:30:23;101859.22;;;5.77;100.00
21100;BME280;10708;50.824;4.408;2023-04-03T20:35:26;101870.50;;;5.69;100.00
21100;BME280;10708;50.824;4.408;2023-04-03T20:40:28;101866.94;;;5.61;100.00
21100;BME280;10708;50.824;4.408;2023-04-03T20:45:32;101859.09;;;5.56;100.00
21100;BME280;10708;50.824;4.408;2023-04-03T20:50:35;101870.38;;;5.50;100.00
21100;BME280;10708;50.824;4.408;2023-04-03T20:55:40;101868.63;;;5.45;100.00
21100;BME280;10708;50.824;4.408;2023-04-03T21:00:44;101860.72;;;5.36;100.00
21100;BME280;10708;50.824;4.408;2023-04-03T21:05:46;101860.66;;;5.30;100.00
21100;BME280;10708;50.824;4.408;2023-04-03T21:21:37;101871.88;;;5.12;100.00
21100;BME280;10708;50.824;4.408;2023-04-03T21:26:41;101861.41;;;5.07;100.00
21100;BME280;10708;50.824;4.408;2023-04-03T21:31:52;101865.69;;;5.01;100.00
21100;BME280;10708;50.824;4.408;2023-04-03T21:36:56;101850.84;;;4.94;100.00
21100;BME280;10708;50.824;4.408;2023-04-03T21:42:01;101855.19;;;4.89;100.00
21100;BME280;10708;50.824;4.408;2023-04-03T21:47:04;101859.47;;;4.83;100.00
21100;BME280;10708;50.824;4.408;2023-04-03T21:52:17;101862.91;;;4.78;100.00
21100;BME280;10708;50.824;4.408;2023-04-03T21:57:19;101849.81;;;4.73;100.00
21100;BME280;10708;50.824;4.408;2023-04-03T22:02:22;101855.00;;;4.67;100.00
21100;BME280;10708;50.824;4.408;2023-04-03T22:07:28;101867.97;;;4.58;100.00
21100;BME280;10708;50.824;4.408;2023-04-03T22:12:30;101864.44;;;4.55;100.00
21100;BME280;10708;50.824;4.408;2023-04-03T22:17:34;101878.31;;;4.51;100.00
21100;BME280;10708;50.824;4.408;2023-04-03T22:22:38;101867.78;;;4.43;100.00
21100;BME280;10708;50.824;4.408;2023-04-03T22:27:40;101865.16;;;4.40;100.00
21100;BME280;10708;50.824;4.408;2023-04-03T22:32:42;101874.69;;;4.39;100.00
21100;BME280;10708;50.824;4.408;2023-04-03T22:37:47;101858.13;;;4.33;100.00
21100;BME280;10708;50.824;4.408;2023-04-03T22:42:49;101840.72;;;4.30;100.00
21100;BME280;10708;50.824;4.408;2023-04-03T22:47:51;101829.34;;;4.24;100.00
21100;BME280;10708;50.824;4.408;2023-04-03T22:52:59;101841.47;;;4.17;100.00
21100;BME280;10708;50.824;4.408;2023-04-03T22:58:02;101830.13;;;4.14;100.00
21100;BME280;10708;50.824;4.408;2023-04-03T23:03:04;101834.41;;;4.10;100.00
21100;BME280;10708;50.824;4.408;2023-04-03T23:08:08;101833.53;;;4.06;100.00
21100;BME280;10708;50.824;4.408;2023-04-03T23:13:10;101832.63;;;4.04;100.00
21100;BME280;10708;50.824;4.408;2023-04-03T23:18:13;101837.78;;;4.00;100.00
21100;BME280;10708;50.824;4.408;2023-04-03T23:23:17;101840.28;;;3.92;100.00
21100;BME280;10708;50.824;4.408;2023-04-03T23:28:20;101842.84;;;3.86;100.00
21100;BME280;10708;50.824;4.408;2023-04-03T23:33:22;101847.09;;;3.80;100.00
21100;BME280;10708;50.824;4.408;2023-04-03T23:38:26;101851.41;;;3.76;100.00
21100;BME280;10708;50.824;4.408;2023-04-03T23:43:29;101854.81;;;3.69;100.00
21100;BME280;10708;50.824;4.408;2023-04-03T23:48:32;101852.09;;;3.63;100.00
21100;BME280;10708;50.824;4.408;2023-04-03T23:53:36;101845.13;;;3.59;100.00
21100;BME280;10708;50.824;4.408;2023-04-03T23:58:38;101848.53;;;3.55;100.00
